Time;durP1;ratioP1;P1;durP2;ratioP2;P2;SDS_P1;SDS_P2;PMS_P1;PMS_P2;Temp;Humidity;BMP_temperature;BMP_pressure;BME280_temperature;BME280_humidity;BME280_pressure;Samples;Min_cycle;Max_cycle;Signal;HPM_P1;HPM_P2
2024/01/16 00:01:57;;;;;;;0.10;0.10;;;2.10;99.90;;;;;;5042812;28;20514;-69
2024/01/16 00:04:23;;;;;;;0.10;0.10;;;2.10;99.90;;;;;;5028782;28;20041;-70
2024/01/16 00:06:48;;;;;;;0.10;0.10;;;2.00;99.90;;;;;;5030593;28;20450;-70
2024/01/16 00:09:14;;;;;;;0.10;0.10;;;2.10;99.90;;;;;;5023354;28;20049;-70
2024/01/16 00:11:41;;;;;;;0.10;0.10;;;2.00;99.90;;;;;;5026644;28;20041;-70
2024/01/16 00:14:06;;;;;;;0.15;0.15;;;2.00;99.90;;;;;;5022812;28;20034;-70
2024/01/16 00:16:32;;;;;;;0.10;0.10;;;2.00;99.90;;;;;;5042889;28;20056;-70
2024/01/16 00:18:58;;;;;;;0.10;0.10;;;2.10;99.90;;;;;;5026627;28;20053;-70
2024/01/16 00:21:23;;;;;;;0.32;0.32;;;2.10;99.90;;;;;;5027287;28;20049;-70
2024/01/16 00:23:49;;;;;;;0.10;0.10;;;2.10;99.90;;;;;;5026359;28;20366;-70
2024/01/16 00:26:24;;;;;;;0.10;0.10;;;2.10;99.90;;;;;;5031143;28;20131;-70
2024/01/16 00:28:49;;;;;;;0.10;0.10;;;2.20;99.90;;;;;;5029009;28;20041;-70
2024/01/16 00:31:15;;;;;;;0.47;0.47;;;2.30;99.90;;;;;;5014758;28;20568;-70
2024/01/16 00:33:40;;;;;;;0.10;0.10;;;2.20;99.90;;;;;;5018817;28;20405;-69
2024/01/16 00:36:06;;;;;;;0.10;0.10;;;2.20;99.90;;;;;;5028892;28;20041;-69
2024/01/16 00:38:35;;;;;;;0.10;0.10;;;2.30;99.90;;;;;;5026390;28;20172;-69
2024/01/16 00:41:01;;;;;;;0.15;0.15;;;2.20;99.90;;;;;;5019994;28;20132;-70
2024/01/16 00:43:26;;;;;;;0.10;0.10;;;2.20;99.90;;;;;;5025962;28;20183;-70
2024/01/16 00:45:52;;;;;;;0.10;0.10;;;2.10;99.90;;;;;;5028132;28;20045;-69
2024/01/16 00:48:19;;;;;;;0.10;0.10;;;2.20;99.90;;;;;;5036254;28;20436;-69
2024/01/16 00:50:46;;;;;;;0.10;0.10;;;2.20;99.90;;;;;;5026752;28;20049;-70
2024/01/16 00:53:11;;;;;;;0.10;0.10;;;2.20;99.90;;;;;;5027261;28;20038;-70
2024/01/16 00:55:37;;;;;;;0.10;0.10;;;2.20;99.90;;;;;;5027399;28;20041;-70
2024/01/16 00:58:03;;;;;;;0.10;0.10;;;2.10;99.90;;;;;;5015646;28;20042;-69
2024/01/16 01:00:30;;;;;;;0.15;0.15;;;2.10;99.90;;;;;;5021288;28;20071;-69
2024/01/16 01:02:57;;;;;;;0.10;0.10;;;2.10;99.90;;;;;;5022518;28;20122;-69
2024/01/16 01:05:28;;;;;;;0.10;0.10;;;2.10;99.90;;;;;;5027289;28;20033;-69
2024/01/16 01:07:54;;;;;;;0.10;0.10;;;2.10;99.90;;;;;;5026838;28;20041;-70
2024/01/16 01:10:20;;;;;;;0.10;0.10;;;2.10;99.90;;;;;;5024675;28;20087;-70
2024/01/16 01:12:45;;;;;;;0.10;0.10;;;2.20;99.90;;;;;;5019910;28;20445;-70
2024/01/16 01:15:11;;;;;;;0.10;0.10;;;2.20;99.90;;;;;;5029891;28;20044;-69
2024/01/16 01:17:37;;;;;;;0.10;0.10;;;2.30;99.90;;;;;;5021433;28;20050;-70
2024/01/16 01:20:03;;;;;;;0.40;0.40;;;2.20;99.90;;;;;;5020262;28;20029;-70
2024/01/16 01:22:28;;;;;;;0.10;0.10;;;2.20;99.90;;;;;;5022615;28;20053;-69
2024/01/16 01:24:54;;;;;;;0.10;0.10;;;2.30;99.90;;;;;;5026468;28;20080;-69
2024/01/16 01:27:20;;;;;;;0.10;0.10;;;2.30;99.90;;;;;;5015839;28;20050;-70
2024/01/16 01:29:46;;;;;;;0.10;0.10;;;2.30;99.90;;;;;;5027645;28;20136;-70
2024/01/16 01:32:11;;;;;;;0.10;0.10;;;2.30;99.90;;;;;;5036989;28;20095;-69
2024/01/16 01:34:38;;;;;;;0.10;0.10;;;2.30;99.90;;;;;;5019835;28;20046;-69
2024/01/16 01:37:03;;;;;;;0.10;0.10;;;2.30;99.90;;;;;;5023183;28;20045;-69
2024/01/16 01:39:30;;;;;;;0.10;0.10;;;2.40;99.90;;;;;;5024242;28;20072;-70
2024/01/16 01:41:55;;;;;;;0.10;0.10;;;2.30;99.90;;;;;;5025017;28;20515;-69
2024/01/16 01:44:21;;;;;;;0.10;0.10;;;2.40;99.90;;;;;;5024928;28;20034;-69
2024/01/16 01:46:47;;;;;;;0.10;0.10;;;2.30;99.90;;;;;;5033509;28;20064;-69
2024/01/16 01:49:15;;;;;;;0.10;0.10;;;2.40;99.90;;;;;;5041036;28;20095;-69
2024/01/16 01:51:41;;;;;;;0.10;0.10;;;2.30;99.90;;;;;;5024627;28;20054;-70
2024/01/16 01:54:07;;;;;;;0.10;0.10;;;2.20;99.90;;;;;;5021919;28;20062;-70
2024/01/16 01:56:33;;;;;;;0.10;0.10;;;2.20;99.90;;;;;;5018777;28;20079;-70
2024/01/16 01:58:59;;;;;;;0.10;0.10;;;2.20;99.90;;;;;;5022605;28;20064;-70
2024/01/16 02:01:26;;;;;;;0.30;0.30;;;2.10;99.90;;;;;;5023853;28;20500;-70
2024/01/16 02:03:55;;;;;;;0.10;0.10;;;2.10;99.90;;;;;;5024207;28;20076;-70
2024/01/16 02:06:20;;;;;;;0.10;0.10;;;2.00;99.90;;;;;;5021083;28;20560;-70
2024/01/16 02:08:46;;;;;;;0.10;0.10;;;2.00;99.90;;;;;;5027878;28;20042;-70
2024/01/16 02:11:12;;;;;;;0.10;0.10;;;2.00;99.90;;;;;;5027502;28;20513;-70
2024/01/16 02:13:38;;;;;;;0.10;0.10;;;2.00;99.90;;;;;;5025381;28;20072;-70
2024/01/16 02:16:05;;;;;;;0.10;0.10;;;2.00;99.90;;;;;;5023222;28;20045;-70
2024/01/16 02:18:31;;;;;;;0.10;0.10;;;2.10;99.90;;;;;;5017984;28;20037;-70
2024/01/16 02:21:01;;;;;;;0.10;0.10;;;2.00;99.90;;;;;;5025953;28;20057;-70
2024/01/16 02:23:27;;;;;;;0.10;0.10;;;2.00;99.90;;;;;;5046958;28;20041;-70
2024/01/16 02:25:54;;;;;;;0.10;0.10;;;2.00;99.90;;;;;;5027699;28;20045;-69
2024/01/16 02:28:19;;;;;;;0.10;0.10;;;1.90;99.90;;;;;;5027369;28;20087;-70
2024/01/16 02:30:46;;;;;;;0.10;0.10;;;2.00;99.90;;;;;;5030613;28;20525;-70
2024/01/16 02:33:11;;;;;;;0.10;0.10;;;1.90;99.90;;;;;;5022433;28;20056;-70
2024/01/16 02:35:37;;;;;;;0.10;0.10;;;1.90;99.90;;;;;;5020863;28;20041;-70
2024/01/16 02:38:04;;;;;;;0.10;0.10;;;1.90;99.90;;;;;;5022863;28;20057;-70
2024/01/16 02:40:30;;;;;;;0.10;0.10;;;1.90;99.90;;;;;;5027137;28;20128;-70
2024/01/16 02:42:55;;;;;;;0.57;0.57;;;2.00;99.90;;;;;;5029483;28;20116;-70
2024/01/16 02:45:21;;;;;;;0.10;0.10;;;2.00;99.90;;;;;;5027426;28;20444;-69
2024/01/16 02:47:47;;;;;;;1.65;1.55;;;1.90;99.90;;;;;;5023957;28;20789;-69
2024/01/16 02:50:13;;;;;;;0.10;0.10;;;1.90;99.90;;;;;;5024573;28;20060;-70
2024/01/16 02:52:39;;;;;;;0.10;0.10;;;2.00;99.90;;;;;;5029530;28;20520;-70
2024/01/16 02:55:05;;;;;;;0.10;0.10;;;1.90;99.90;;;;;;5022607;28;20045;-70
2024/01/16 02:57:31;;;;;;;0.13;0.13;;;1.90;99.90;;;;;;5021517;28;20543;-70
2024/01/16 02:59:56;;;;;;;0.10;0.10;;;2.00;99.90;;;;;;5027684;28;20037;-70
2024/01/16 03:02:23;;;;;;;0.10;0.10;;;2.00;99.90;;;;;;5029683;28;20473;-70
2024/01/16 03:04:49;;;;;;;0.75;0.75;;;2.00;99.90;;;;;;5028277;28;20069;-70
2024/01/16 03:07:15;;;;;;;0.10;0.10;;;2.10;99.90;;;;;;5021020;28;20049;-69
2024/01/16 03:09:41;;;;;;;0.10;0.10;;;2.10;99.90;;;;;;5024251;28;20144;-70
2024/01/16 03:12:06;;;;;;;0.10;0.10;;;2.00;99.90;;;;;;5028916;28;20038;-69
2024/01/16 03:14:34;;;;;;;0.20;0.20;;;2.00;99.90;;;;;;5027463;28;20497;-70
2024/01/16 03:17:01;;;;;;;0.10;0.10;;;2.10;99.90;;;;;;5022354;28;20045;-69
2024/01/16 03:19:27;;;;;;;0.10;0.10;;;2.10;99.90;;;;;;5029266;28;20095;-70
2024/01/16 03:21:53;;;;;;;0.20;0.20;;;2.10;99.90;;;;;;5029447;28;20049;-69
2024/01/16 03:24:19;;;;;;;0.10;0.10;;;2.20;99.90;;;;;;5025398;28;20069;-69
2024/01/16 03:26:45;;;;;;;0.10;0.10;;;2.20;99.90;;;;;;5029581;28;20428;-70
2024/01/16 03:29:11;;;;;;;0.10;0.10;;;2.20;99.90;;;;;;5025716;28;20545;-69
2024/01/16 03:31:36;;;;;;;0.10;0.10;;;2.20;99.90;;;;;;5025771;28;20096;-69
2024/01/16 03:34:02;;;;;;;0.10;0.10;;;2.20;99.90;;;;;;5023525;28;20109;-69
2024/01/16 03:36:28;;;;;;;0.10;0.10;;;2.10;99.90;;;;;;5022458;28;20045;-69
2024/01/16 03:38:53;;;;;;;0.10;0.10;;;2.10;99.90;;;;;;5030554;28;20076;-69
2024/01/16 03:41:19;;;;;;;0.10;0.10;;;2.00;99.90;;;;;;5022559;28;20045;-70
2024/01/16 03:43:45;;;;;;;0.10;0.10;;;2.10;99.90;;;;;;5027997;28;20397;-69
2024/01/16 03:46:11;;;;;;;0.10;0.10;;;2.10;99.90;;;;;;5022593;28;20034;-69
2024/01/16 03:48:37;;;;;;;0.10;0.10;;;2.10;99.90;;;;;;5029071;28;20435;-70
2024/01/16 03:51:02;;;;;;;0.10;0.10;;;2.10;99.90;;;;;;5029451;28;20049;-70
2024/01/16 03:53:28;;;;;;;0.10;0.10;;;2.10;99.90;;;;;;5021042;28;20150;-70
2024/01/16 03:55:53;;;;;;;1.80;1.10;;;2.00;99.90;;;;;;5023601;28;20049;-69
2024/01/16 03:58:19;;;;;;;0.10;0.10;;;2.10;99.90;;;;;;5020288;28;20116;-69
2024/01/16 04:00:45;;;;;;;0.10;0.10;;;2.10;99.90;;;;;;5019948;28;20472;-69
2024/01/16 04:03:11;;;;;;;2.13;1.95;;;2.10;99.90;;;;;;5027302;28;20038;-69
2024/01/16 04:05:37;;;;;;;0.10;0.10;;;2.10;99.90;;;;;;5027229;28;20049;-70
2024/01/16 04:08:03;;;;;;;0.20;0.20;;;2.10;99.90;;;;;;5024268;28;20120;-68
2024/01/16 04:10:28;;;;;;;0.10;0.10;;;2.10;99.90;;;;;;5026930;28;20045;-69
2024/01/16 04:12:54;;;;;;;0.10;0.10;;;2.10;99.90;;;;;;5024735;28;20132;-69
2024/01/16 04:15:19;;;;;;;0.10;0.10;;;2.20;99.90;;;;;;5023847;28;20608;-69
2024/01/16 04:17:45;;;;;;;0.10;0.10;;;2.10;99.90;;;;;;5018814;28;20057;-69
2024/01/16 04:20:11;;;;;;;0.10;0.10;;;2.20;99.90;;;;;;5020928;28;20076;-69
2024/01/16 04:22:36;;;;;;;0.20;0.20;;;2.20;99.90;;;;;;5021423;28;20064;-70
2024/01/16 04:25:04;;;;;;;0.10;0.10;;;2.20;99.90;;;;;;5027532;28;20051;-69
2024/01/16 04:27:31;;;;;;;0.10;0.10;;;2.20;99.90;;;;;;5028634;28;20096;-69
2024/01/16 04:29:57;;;;;;;0.10;0.10;;;2.20;99.90;;;;;;5028341;28;20489;-69
2024/01/16 04:32:22;;;;;;;0.10;0.10;;;2.20;99.90;;;;;;5018307;28;20092;-69
2024/01/16 04:34:48;;;;;;;0.10;0.10;;;2.20;99.90;;;;;;5025677;28;20725;-69
2024/01/16 04:37:13;;;;;;;0.10;0.10;;;2.20;99.90;;;;;;5017495;28;20448;-69
2024/01/16 04:39:39;;;;;;;0.10;0.10;;;2.20;99.90;;;;;;5023035;28;20049;-69
2024/01/16 04:42:04;;;;;;;0.13;0.13;;;2.20;99.90;;;;;;5028413;28;20055;-69
2024/01/16 04:44:30;;;;;;;0.10;0.10;;;2.20;99.90;;;;;;5021901;28;20045;-69
2024/01/16 04:46:56;;;;;;;0.10;0.10;;;2.20;99.90;;;;;;5026857;28;20495;-70
2024/01/16 04:49:21;;;;;;;0.20;0.20;;;2.20;99.90;;;;;;5026058;28;20389;-70
2024/01/16 04:51:47;;;;;;;0.10;0.10;;;2.20;99.90;;;;;;5021740;28;20054;-70
2024/01/16 04:54:12;;;;;;;0.10;0.10;;;2.20;99.90;;;;;;5022015;28;20045;-69
2024/01/16 04:56:38;;;;;;;0.10;0.10;;;2.20;99.90;;;;;;5025339;28;20084;-69
2024/01/16 04:59:04;;;;;;;0.57;0.57;;;2.20;99.90;;;;;;5028776;28;20041;-70
2024/01/16 05:01:29;;;;;;;0.10;0.10;;;2.20;99.90;;;;;;5020661;28;20128;-70
2024/01/16 05:03:55;;;;;;;0.10;0.10;;;2.20;99.90;;;;;;5019768;28;20056;-70
2024/01/16 05:06:21;;;;;;;0.10;0.10;;;2.30;99.90;;;;;;5028776;28;20045;-69
2024/01/16 05:08:47;;;;;;;0.10;0.10;;;2.20;99.90;;;;;;5023300;28;20444;-69
2024/01/16 05:11:13;;;;;;;0.10;0.10;;;2.30;99.90;;;;;;5024295;28;20056;-69
2024/01/16 05:13:38;;;;;;;0.10;0.10;;;2.30;99.90;;;;;;5022702;28;20476;-70
2024/01/16 05:16:05;;;;;;;0.10;0.10;;;2.30;99.90;;;;;;5023315;28;20107;-70
2024/01/16 05:18:32;;;;;;;0.10;0.10;;;2.30;99.90;;;;;;5043155;28;20124;-70
2024/01/16 05:20:58;;;;;;;0.10;0.10;;;2.30;99.90;;;;;;5020605;28;20089;-70
2024/01/16 05:23:23;;;;;;;0.10;0.10;;;2.30;99.90;;;;;;5025715;28;20068;-70
2024/01/16 05:25:49;;;;;;;0.20;0.20;;;2.30;99.90;;;;;;5016569;28;20045;-70
2024/01/16 05:28:15;;;;;;;1.48;1.38;;;2.30;99.90;;;;;;5025838;28;20100;-69
2024/01/16 05:30:40;;;;;;;0.30;0.30;;;2.30;99.90;;;;;;5027666;28;20595;-70
2024/01/16 05:33:07;;;;;;;0.10;0.10;;;2.30;99.90;;;;;;5037758;28;20505;-69
2024/01/16 05:35:32;;;;;;;0.10;0.10;;;2.40;99.90;;;;;;5020835;28;20049;-69
2024/01/16 05:37:59;;;;;;;0.30;0.30;;;2.40;99.90;;;;;;5025962;28;20057;-70
2024/01/16 05:40:25;;;;;;;0.10;0.10;;;2.40;99.90;;;;;;5020774;28;20480;-69
2024/01/16 05:42:50;;;;;;;0.10;0.10;;;2.40;99.90;;;;;;5026834;28;20087;-69
2024/01/16 05:45:17;;;;;;;0.10;0.10;;;2.40;99.90;;;;;;5021962;28;20037;-70
2024/01/16 05:47:42;;;;;;;0.10;0.10;;;2.40;99.90;;;;;;5023528;28;20033;-70
2024/01/16 05:50:08;;;;;;;0.10;0.10;;;2.30;99.90;;;;;;5025589;28;20122;-70
2024/01/16 05:52:34;;;;;;;0.15;0.15;;;2.30;99.90;;;;;;5020650;28;20046;-69
2024/01/16 05:55:00;;;;;;;0.10;0.10;;;2.30;99.90;;;;;;5023493;28;20049;-70
2024/01/16 05:57:26;;;;;;;0.10;0.10;;;2.30;99.90;;;;;;5019965;28;20052;-70
2024/01/16 05:59:52;;;;;;;0.20;0.20;;;2.30;99.90;;;;;;5031111;28;20103;-69
2024/01/16 06:02:18;;;;;;;0.10;0.10;;;2.30;99.90;;;;;;5023818;28;20406;-70
2024/01/16 06:04:43;;;;;;;0.10;0.10;;;2.30;99.90;;;;;;5025777;28;20164;-69
2024/01/16 06:07:09;;;;;;;0.20;0.20;;;2.30;99.90;;;;;;5045027;28;20641;-70
2024/01/16 06:09:41;;;;;;;0.30;0.30;;;2.30;99.90;;;;;;5027361;28;20132;-69
2024/01/16 06:12:07;;;;;;;0.17;0.17;;;2.40;99.90;;;;;;5020367;28;20077;-69
2024/01/16 06:14:33;;;;;;;0.20;0.20;;;2.40;99.90;;;;;;5027274;28;20405;-69
2024/01/16 06:16:59;;;;;;;0.10;0.10;;;2.40;99.90;;;;;;5024858;28;20052;-69
2024/01/16 06:19:25;;;;;;;0.10;0.10;;;2.40;99.90;;;;;;5030244;28;20046;-69
2024/01/16 06:21:50;;;;;;;0.10;0.10;;;2.40;99.90;;;;;;5029295;28;20041;-69
2024/01/16 06:24:16;;;;;;;0.10;0.10;;;2.50;99.90;;;;;;5030142;28;20041;-69
2024/01/16 06:26:42;;;;;;;0.10;0.10;;;2.50;99.90;;;;;;5036287;28;20490;-69
2024/01/16 06:29:08;;;;;;;0.10;0.10;;;2.50;99.90;;;;;;5028410;28;20460;-69
2024/01/16 06:31:33;;;;;;;0.10;0.10;;;2.50;99.90;;;;;;5026287;28;20436;-70
2024/01/16 06:33:59;;;;;;;0.10;0.10;;;2.50;99.90;;;;;;5031840;28;20086;-69
2024/01/16 06:36:25;;;;;;;1.95;1.25;;;2.50;99.90;;;;;;5030940;28;20069;-70
2024/01/16 06:38:50;;;;;;;0.10;0.10;;;2.50;99.90;;;;;;5021470;28;20089;-70
2024/01/16 06:41:16;;;;;;;0.10;0.10;;;2.50;99.90;;;;;;5027860;28;20099;-70
2024/01/16 06:43:41;;;;;;;0.10;0.10;;;2.50;99.90;;;;;;5020381;28;20029;-70
2024/01/16 06:46:07;;;;;;;0.10;0.10;;;2.40;99.90;;;;;;5022870;28;20052;-70
2024/01/16 06:48:35;;;;;;;0.10;0.10;;;2.30;99.90;;;;;;5029149;28;20102;-69
2024/01/16 06:51:01;;;;;;;0.10;0.10;;;2.30;99.90;;;;;;5024425;28;20073;-70
2024/01/16 06:53:26;;;;;;;0.13;0.13;;;2.40;99.90;;;;;;5018776;28;20077;-69
2024/01/16 06:55:52;;;;;;;0.10;0.10;;;2.40;99.90;;;;;;5031865;28;20048;-69
2024/01/16 06:58:18;;;;;;;0.43;0.43;;;2.40;99.90;;;;;;5029678;28;20463;-69
2024/01/16 07:00:44;;;;;;;0.10;0.10;;;2.40;99.90;;;;;;5038037;28;20074;-69
2024/01/16 07:03:10;;;;;;;0.17;0.17;;;2.40;99.90;;;;;;5025837;28;20490;-69
2024/01/16 07:05:35;;;;;;;0.10;0.10;;;2.40;99.90;;;;;;5017136;28;20044;-69
2024/01/16 07:08:01;;;;;;;0.17;0.17;;;2.30;99.90;;;;;;5023008;28;20049;-69
2024/01/16 07:10:27;;;;;;;0.10;0.10;;;2.30;99.90;;;;;;5020942;28;20038;-69
2024/01/16 07:12:53;;;;;;;0.10;0.10;;;2.30;99.90;;;;;;5023847;28;20041;-69
2024/01/16 07:15:19;;;;;;;0.65;0.65;;;2.20;99.90;;;;;;5029678;28;20412;-69
2024/01/16 07:17:44;;;;;;;0.10;0.10;;;2.10;99.90;;;;;;5022410;28;20037;-69
2024/01/16 07:20:10;;;;;;;0.10;0.10;;;2.10;99.90;;;;;;5027252;28;20480;-69
2024/01/16 07:22:39;;;;;;;0.10;0.10;;;2.10;99.90;;;;;;5028242;28;20076;-69
2024/01/16 07:25:05;;;;;;;0.10;0.10;;;2.10;99.90;;;;;;5028661;28;20836;-68
2024/01/16 07:27:31;;;;;;;0.10;0.10;;;2.00;99.90;;;;;;5019663;28;20060;-67
2024/01/16 07:29:56;;;;;;;0.20;0.20;;;2.00;99.90;;;;;;5021239;28;20883;-68
2024/01/16 07:32:22;;;;;;;0.20;0.20;;;2.00;99.90;;;;;;5022225;28;20173;-68
2024/01/16 07:34:48;;;;;;;0.63;0.63;;;1.90;99.90;;;;;;5024579;28;20499;-68
2024/01/16 07:37:15;;;;;;;0.10;0.10;;;1.90;99.90;;;;;;5026066;28;20515;-68
2024/01/16 07:39:41;;;;;;;0.10;0.10;;;1.90;99.90;;;;;;5022257;28;20382;-68
2024/01/16 07:42:07;;;;;;;0.13;0.13;;;1.90;99.90;;;;;;5028597;28;20045;-68
2024/01/16 07:44:33;;;;;;;0.32;0.32;;;1.90;99.90;;;;;;5018111;28;20501;-68
2024/01/16 07:46:59;;;;;;;0.10;0.10;;;1.90;99.90;;;;;;5027738;28;20072;-69
2024/01/16 07:49:24;;;;;;;0.10;0.10;;;1.90;99.90;;;;;;5030037;28;20041;-68
2024/01/16 07:51:50;;;;;;;0.85;0.85;;;2.00;99.90;;;;;;5018511;28;20037;-68
2024/01/16 07:54:15;;;;;;;0.10;0.10;;;2.00;99.90;;;;;;5024736;28;20069;-69
2024/01/16 07:56:41;;;;;;;0.10;0.10;;;2.10;99.90;;;;;;5025379;28;20041;-69
2024/01/16 07:59:07;;;;;;;0.10;0.10;;;2.10;99.90;;;;;;5028932;28;20041;-69
2024/01/16 08:01:32;;;;;;;0.20;0.20;;;2.10;99.90;;;;;;5038305;28;20053;-68
2024/01/16 08:03:58;;;;;;;0.10;0.10;;;2.10;99.90;;;;;;5026382;28;20049;-69
2024/01/16 08:06:24;;;;;;;0.10;0.10;;;2.10;99.90;;;;;;5025298;28;20468;-69
2024/01/16 08:08:50;;;;;;;0.20;0.20;;;2.10;99.90;;;;;;5023625;28;20083;-69
2024/01/16 08:11:16;;;;;;;0.20;0.20;;;2.20;99.90;;;;;;5017683;28;20040;-69
2024/01/16 08:13:42;;;;;;;0.10;0.10;;;2.20;99.90;;;;;;5020923;28;20041;-67
2024/01/16 08:16:08;;;;;;;0.20;0.20;;;2.10;99.90;;;;;;5024183;28;20574;-67
2024/01/16 08:18:34;;;;;;;0.13;0.13;;;2.10;99.90;;;;;;5022163;28;20243;-67
2024/01/16 08:20:59;;;;;;;0.10;0.10;;;2.10;99.90;;;;;;5025758;28;20129;-68
2024/01/16 08:23:25;;;;;;;0.10;0.10;;;2.10;99.90;;;;;;5023806;28;20132;-67
2024/01/16 08:25:51;;;;;;;0.10;0.10;;;2.10;99.90;;;;;;5028766;28;20044;-67
2024/01/16 08:28:18;;;;;;;0.20;0.20;;;2.00;99.90;;;;;;5028137;28;20428;-67
2024/01/16 08:30:43;;;;;;;0.20;0.20;;;2.10;99.90;;;;;;5018430;28;20034;-67
2024/01/16 08:33:10;;;;;;;0.10;0.10;;;2.00;99.90;;;;;;5026480;28;20108;-67
2024/01/16 08:35:35;;;;;;;0.10;0.10;;;2.00;99.90;;;;;;5018351;28;20045;-66
2024/01/16 08:38:01;;;;;;;0.10;0.10;;;2.00;99.90;;;;;;5026103;28;20053;-68
2024/01/16 08:40:26;;;;;;;0.10;0.10;;;2.00;99.90;;;;;;5038324;28;20409;-67
2024/01/16 08:42:54;;;;;;;0.20;0.20;;;2.00;99.90;;;;;;5024370;28;20148;-68
2024/01/16 08:45:21;;;;;;;0.10;0.10;;;2.00;99.90;;;;;;5025367;28;20551;-68
2024/01/16 08:47:47;;;;;;;0.17;0.17;;;2.00;99.90;;;;;;5026738;28;20057;-69
2024/01/16 08:50:12;;;;;;;0.10;0.10;;;1.90;99.90;;;;;;5023632;28;20036;-67
2024/01/16 08:52:38;;;;;;;0.17;0.17;;;1.90;99.90;;;;;;5023539;28;20441;-67
2024/01/16 08:55:04;;;;;;;0.10;0.10;;;2.00;99.90;;;;;;5028888;28;20055;-68
2024/01/16 08:57:30;;;;;;;0.17;0.17;;;1.90;99.90;;;;;;5023642;28;20064;-68
2024/01/16 08:59:56;;;;;;;0.20;0.20;;;2.00;99.90;;;;;;5019465;28;20485;-69
2024/01/16 09:02:21;;;;;;;0.10;0.10;;;2.00;99.90;;;;;;5025852;28;20069;-69
2024/01/16 09:04:50;;;;;;;0.20;0.20;;;2.00;99.90;;;;;;5025691;28;20640;-69
2024/01/16 09:07:18;;;;;;;0.10;0.10;;;2.00;99.90;;;;;;5024630;28;20096;-68
2024/01/16 09:09:44;;;;;;;0.10;0.10;;;2.10;99.90;;;;;;5012818;28;20064;-69
2024/01/16 09:12:10;;;;;;;0.90;0.80;;;2.10;99.90;;;;;;5022324;28;20473;-69
2024/01/16 09:14:35;;;;;;;0.10;0.10;;;2.20;99.90;;;;;;5020342;28;20047;-68
2024/01/16 09:17:02;;;;;;;0.10;0.10;;;2.10;99.90;;;;;;5027913;28;20080;-69
2024/01/16 09:19:29;;;;;;;0.10;0.10;;;2.20;99.90;;;;;;5021110;28;20037;-67
2024/01/16 09:21:55;;;;;;;0.10;0.10;;;2.20;99.90;;;;;;5025899;28;20055;-68
2024/01/16 09:24:20;;;;;;;0.10;0.10;;;2.10;99.90;;;;;;5020113;28;20053;-69
2024/01/16 09:26:46;;;;;;;0.10;0.10;;;2.10;99.90;;;;;;5023807;28;20037;-68
2024/01/16 09:29:12;;;;;;;0.10;0.10;;;2.10;99.90;;;;;;5024436;28;20071;-68
2024/01/16 09:31:38;;;;;;;0.10;0.10;;;2.10;99.90;;;;;;5023114;28;20433;-68
2024/01/16 09:34:04;;;;;;;0.10;0.10;;;2.20;99.90;;;;;;5029685;28;20067;-68
2024/01/16 09:36:30;;;;;;;0.10;0.10;;;2.10;99.90;;;;;;5028721;28;20041;-69
2024/01/16 09:38:55;;;;;;;0.10;0.10;;;2.20;99.90;;;;;;5026543;28;20053;-68
2024/01/16 09:41:21;;;;;;;0.10;0.10;;;2.20;99.90;;;;;;5032035;28;20041;-68
2024/01/16 09:43:47;;;;;;;0.13;0.13;;;2.20;99.90;;;;;;5023487;28;20038;-69
2024/01/16 09:46:16;;;;;;;0.10;0.10;;;2.20;99.90;;;;;;5025237;28;20037;-68
2024/01/16 09:48:44;;;;;;;0.20;0.20;;;2.20;99.90;;;;;;5025069;28;20516;-69
2024/01/16 09:51:14;;;;;;;0.10;0.10;;;2.20;99.90;;;;;;5026295;28;20045;-68
2024/01/16 09:53:41;;;;;;;0.10;0.10;;;2.30;99.90;;;;;;5031666;28;20038;-68
2024/01/16 09:56:14;;;;;;;0.10;0.10;;;2.30;99.90;;;;;;5025738;28;20128;-68
2024/01/16 09:58:42;;;;;;;0.10;0.10;;;2.30;99.90;;;;;;5030637;28;20041;-68
2024/01/16 10:01:08;;;;;;;0.10;0.10;;;2.40;99.90;;;;;;5029582;28;20492;-68
2024/01/16 10:03:38;;;;;;;0.10;0.10;;;2.40;99.90;;;;;;5028097;28;20120;-68
2024/01/16 10:06:07;;;;;;;0.20;0.20;;;2.40;99.90;;;;;;5027332;28;20075;-69
2024/01/16 10:08:33;;;;;;;4.90;3.42;;;2.40;99.90;;;;;;5043982;28;20564;-69
2024/01/16 10:10:59;;;;;;;0.10;0.10;;;2.40;99.90;;;;;;5023611;28;20045;-69
2024/01/16 10:13:26;;;;;;;0.10;0.10;;;2.40;99.90;;;;;;5024329;28;20553;-68
2024/01/16 10:15:55;;;;;;;0.10;0.10;;;2.30;99.90;;;;;;5029839;28;20379;-69
2024/01/16 10:18:29;;;;;;;0.10;0.10;;;2.30;99.90;;;;;;5029657;28;20378;-69
2024/01/16 10:20:55;;;;;;;0.10;0.10;;;2.30;99.90;;;;;;5023483;28;20053;-69
2024/01/16 10:23:28;;;;;;;0.20;0.20;;;2.30;99.90;;;;;;5025689;28;20535;-69
2024/01/16 10:26:20;;;;;;;0.10;0.10;;;2.40;99.90;;;;;;5024891;28;20052;-69
2024/01/16 10:28:46;;;;;;;0.10;0.10;;;2.40;99.90;;;;;;5013955;28;20065;-70
2024/01/16 10:31:16;;;;;;;0.10;0.10;;;2.40;99.90;;;;;;5020568;28;21799;-69
2024/01/16 10:33:41;;;;;;;0.10;0.10;;;2.30;99.90;;;;;;5026312;28;20045;-70
2024/01/16 10:36:18;;;;;;;0.10;0.10;;;2.40;99.90;;;;;;5028161;28;20057;-70
2024/01/16 10:38:44;;;;;;;0.10;0.10;;;2.40;99.90;;;;;;5035806;28;20133;-70
2024/01/16 10:41:17;;;;;;;0.10;0.10;;;2.40;99.90;;;;;;5030963;28;20045;-69
2024/01/16 10:43:46;;;;;;;0.10;0.10;;;2.40;99.90;;;;;;5027142;28;20083;-70
2024/01/16 10:46:14;;;;;;;0.10;0.10;;;2.40;99.90;;;;;;5027327;28;20096;-70
2024/01/16 10:48:42;;;;;;;0.10;0.10;;;2.40;99.90;;;;;;5022433;28;20121;-70
2024/01/16 10:51:11;;;;;;;0.10;0.10;;;2.50;99.90;;;;;;5024020;28;20054;-67
2024/01/16 10:53:40;;;;;;;0.10;0.10;;;2.50;99.90;;;;;;5027876;28;20040;-70
2024/01/16 10:56:11;;;;;;;1.48;1.38;;;2.50;99.90;;;;;;5026296;28;20440;-70
2024/01/16 10:58:40;;;;;;;0.20;0.20;;;2.30;99.90;;;;;;5025312;28;20482;-70
2024/01/16 11:01:11;;;;;;;0.70;0.70;;;2.30;99.90;;;;;;5019675;28;20037;-70
2024/01/16 11:03:50;;;;;;;0.10;0.10;;;2.30;99.90;;;;;;5021676;28;20042;-71
2024/01/16 11:06:18;;;;;;;0.10;0.10;;;2.30;99.90;;;;;;5028199;28;20562;-70
2024/01/16 11:08:48;;;;;;;0.10;0.10;;;2.30;99.90;;;;;;5023485;28;20097;-71
2024/01/16 11:11:15;;;;;;;0.10;0.10;;;2.30;99.90;;;;;;5021251;28;20553;-68
2024/01/16 11:13:44;;;;;;;0.10;0.10;;;2.30;99.90;;;;;;5025997;28;20124;-70
2024/01/16 11:16:11;;;;;;;0.08;0.08;;;2.30;99.90;;;;;;5030051;28;20145;-69
2024/01/16 11:18:37;;;;;;;0.10;0.10;;;2.40;99.90;;;;;;5029859;28;20046;-70
2024/01/16 11:21:05;;;;;;;0.10;0.10;;;2.30;99.90;;;;;;5026165;28;20049;-69
2024/01/16 11:23:31;;;;;;;0.10;0.10;;;2.30;99.90;;;;;;5021938;28;20033;-70
2024/01/16 11:25:57;;;;;;;0.10;0.10;;;2.20;99.90;;;;;;5025977;28;20053;-70
2024/01/16 11:28:29;;;;;;;0.20;0.20;;;2.30;99.90;;;;;;5022488;28;20033;-70
2024/01/16 11:30:56;;;;;;;0.40;0.40;;;2.40;99.90;;;;;;5024882;28;20042;-69
2024/01/16 11:33:34;;;;;;;0.20;0.20;;;2.40;99.90;;;;;;5025688;28;20045;-69
2024/01/16 11:36:00;;;;;;;0.10;0.10;;;2.50;99.90;;;;;;5022900;28;20489;-68
2024/01/16 11:38:26;;;;;;;0.10;0.10;;;2.60;99.90;;;;;;5024614;28;20053;-68
2024/01/16 11:40:56;;;;;;;0.17;0.17;;;2.60;99.90;;;;;;5027950;28;21301;-68
2024/01/16 11:43:34;;;;;;;0.10;0.10;;;2.70;99.90;;;;;;5023385;28;20048;-71
2024/01/16 11:46:10;;;;;;;0.10;0.10;;;2.70;99.90;;;;;;5019422;28;20046;-71
2024/01/16 11:48:38;;;;;;;0.10;0.10;;;2.70;99.90;;;;;;5016231;28;20116;-71
2024/01/16 11:51:24;;;;;;;0.10;0.10;;;2.70;99.90;;;;;;5027551;28;20052;-71
2024/01/16 11:53:49;;;;;;;0.10;0.10;;;2.90;99.90;;;;;;5023594;28;20064;-71
2024/01/16 11:56:33;;;;;;;0.10;0.10;;;3.00;99.90;;;;;;5023725;28;20049;-71
2024/01/16 11:59:38;;;;;;;0.20;0.20;;;3.10;99.90;;;;;;5024549;28;20057;-71
2024/01/16 12:02:14;;;;;;;0.10;0.10;;;3.20;99.90;;;;;;5027444;28;20599;-71
2024/01/16 12:04:39;;;;;;;0.10;0.10;;;3.60;99.90;;;;;;5028530;28;20430;-71
2024/01/16 12:07:05;;;;;;;0.10;0.10;;;3.70;99.90;;;;;;5024945;28;20080;-71
2024/01/16 12:09:30;;;;;;;1.10;1.08;;;4.00;99.90;;;;;;5028703;28;20124;-71
2024/01/16 12:11:58;;;;;;;0.38;0.38;;;4.20;99.90;;;;;;5027726;28;20096;-71
2024/01/16 12:14:24;;;;;;;0.10;0.10;;;4.20;99.90;;;;;;5018799;28;20072;-71
2024/01/16 12:16:50;;;;;;;0.10;0.10;;;4.40;99.90;;;;;;5021454;28;20489;-71
2024/01/16 12:19:15;;;;;;;0.10;0.10;;;4.50;99.90;;;;;;5025719;28;20033;-71
2024/01/16 12:21:44;;;;;;;0.10;0.10;;;4.50;99.90;;;;;;5026747;28;20073;-71
2024/01/16 12:24:10;;;;;;;0.13;0.13;;;4.30;99.90;;;;;;5023573;28;20068;-71
2024/01/16 12:26:37;;;;;;;5.38;2.05;;;4.30;99.90;;;;;;5018464;28;20128;-72
2024/01/16 12:29:03;;;;;;;0.10;0.10;;;4.30;99.90;;;;;;5022003;28;20037;-71
2024/01/16 12:31:29;;;;;;;1.45;0.40;;;4.10;99.90;;;;;;5027571;28;20606;-72
2024/01/16 12:34:07;;;;;;;0.10;0.10;;;3.90;99.90;;;;;;5016771;28;20120;-71
2024/01/16 12:36:34;;;;;;;0.20;0.20;;;3.90;99.90;;;;;;5023477;28;20140;-71
2024/01/16 12:38:59;;;;;;;1.40;1.33;;;4.10;99.90;;;;;;5028795;28;20075;-71
2024/01/16 12:41:38;;;;;;;0.10;0.10;;;4.10;99.90;;;;;;5025604;28;20045;-72
2024/01/16 12:44:04;;;;;;;0.10;0.10;;;4.20;99.90;;;;;;5032263;28;20053;-71
2024/01/16 12:46:30;;;;;;;0.10;0.10;;;4.20;99.90;;;;;;5027251;28;20106;-72
2024/01/16 12:49:03;;;;;;;0.10;0.10;;;4.30;99.90;;;;;;5014709;28;20136;-71
2024/01/16 12:51:29;;;;;;;0.80;0.80;;;4.30;99.90;;;;;;5025466;28;20053;-71
2024/01/16 12:54:09;;;;;;;0.10;0.10;;;4.50;99.90;;;;;;5029423;28;20566;-72
2024/01/16 12:56:35;;;;;;;0.10;0.10;;;4.50;99.90;;;;;;5022758;28;20045;-72